Time;durP1;ratioP1;P1;durP2;ratioP2;P2;SDS_P1;SDS_P2;PMS_P1;PMS_P2;Temp;Humidity;BMP_temperature;BMP_pressure;BME280_temperature;BME280_humidity;BME280_pressure;Samples;Min_cycle;Max_cycle;Signal;HPM_P1;HPM_P2
2024/02/17 00:03:46;;;;;;;6.13;3.90;;;14.20;99.90;;;;;;10078483;28;20139;-65
2024/02/17 00:08:37;;;;;;;6.03;3.85;;;14.20;99.90;;;;;;10068279;28;20418;-64
2024/02/17 00:13:28;;;;;;;7.57;3.97;;;14.20;99.90;;;;;;10092616;28;20055;-63
2024/02/17 00:18:20;;;;;;;11.63;4.07;;;14.20;99.90;;;;;;10089267;28;20060;-63
2024/02/17 00:23:11;;;;;;;7.00;4.55;;;14.20;99.90;;;;;;10086640;28;20021;-64
2024/02/17 00:28:01;;;;;;;7.38;4.22;;;14.20;99.90;;;;;;10085875;28;20056;-65
2024/02/17 00:32:52;;;;;;;7.20;4.43;;;14.20;99.90;;;;;;10079704;28;20056;-63
2024/02/17 00:37:43;;;;;;;6.32;3.90;;;14.20;99.90;;;;;;10084752;28;20029;-66
2024/02/17 00:42:33;;;;;;;9.13;4.97;;;14.10;99.90;;;;;;10095349;28;20106;-65
2024/02/17 00:47:24;;;;;;;6.53;4.57;;;14.10;99.90;;;;;;10093929;28;20087;-65
2024/02/17 00:52:15;;;;;;;9.32;4.68;;;14.20;99.90;;;;;;10095503;28;20037;-65
2024/02/17 00:57:06;;;;;;;6.32;4.43;;;14.10;99.90;;;;;;10085184;28;20076;-64
2024/02/17 01:01:58;;;;;;;11.73;5.45;;;14.10;99.90;;;;;;10095105;28;20025;-64
2024/02/17 01:06:48;;;;;;;8.20;5.55;;;14.20;99.90;;;;;;10095001;28;20498;-63
2024/02/17 01:11:39;;;;;;;8.73;4.85;;;14.10;99.90;;;;;;10094074;28;20021;-64
2024/02/17 01:16:30;;;;;;;7.45;4.93;;;14.10;99.90;;;;;;10093114;28;20123;-64
2024/02/17 01:21:21;;;;;;;8.43;4.63;;;14.10;99.90;;;;;;10094165;28;20025;-64
2024/02/17 01:26:11;;;;;;;7.60;4.88;;;14.10;99.90;;;;;;10069802;28;20070;-65
2024/02/17 01:31:02;;;;;;;9.00;5.18;;;14.10;99.90;;;;;;10088394;28;20033;-64
2024/02/17 01:35:54;;;;;;;6.50;4.68;;;14.10;99.90;;;;;;10091968;28;20049;-65
2024/02/17 01:40:44;;;;;;;7.47;4.18;;;14.00;99.90;;;;;;10092458;28;20033;-64
2024/02/17 01:45:35;;;;;;;8.27;5.43;;;14.00;99.90;;;;;;10089792;28;20715;-63
2024/02/17 01:50:26;;;;;;;6.20;3.35;;;13.90;99.90;;;;;;10085925;28;20029;-65
2024/02/17 01:55:18;;;;;;;5.35;3.10;;;13.90;99.90;;;;;;10085957;28;20608;-65
2024/02/17 02:00:10;;;;;;;4.43;2.45;;;13.90;99.90;;;;;;10088673;28;20039;-66
2024/02/17 02:05:00;;;;;;;3.95;2.38;;;13.80;99.90;;;;;;10095663;28;20041;-67
2024/02/17 02:09:51;;;;;;;3.58;2.40;;;13.90;99.90;;;;;;10095978;28;20391;-67
2024/02/17 02:14:42;;;;;;;4.90;2.47;;;13.90;99.90;;;;;;10097379;28;20561;-67
2024/02/17 02:19:32;;;;;;;4.50;1.65;;;14.00;99.90;;;;;;10102847;28;20114;-66
2024/02/17 02:24:23;;;;;;;3.00;1.67;;;13.90;99.90;;;;;;10078138;28;20038;-66
2024/02/17 02:29:14;;;;;;;3.65;2.03;;;13.90;99.90;;;;;;10105200;28;20073;-67
2024/02/17 02:34:05;;;;;;;2.50;1.92;;;13.90;99.90;;;;;;10105888;28;20044;-68
2024/02/17 02:38:56;;;;;;;1.67;1.30;;;13.90;99.90;;;;;;10105290;28;20140;-64
2024/02/17 02:43:48;;;;;;;2.85;1.73;;;13.90;99.90;;;;;;10101088;28;20033;-67
2024/02/17 02:48:38;;;;;;;2.67;1.90;;;13.80;99.90;;;;;;10100423;28;20021;-64
2024/02/17 02:53:29;;;;;;;2.47;1.70;;;13.80;99.90;;;;;;10100749;28;20059;-64
2024/02/17 02:58:20;;;;;;;2.78;1.60;;;13.80;99.90;;;;;;10097870;28;20115;-65
2024/02/17 03:03:10;;;;;;;2.90;1.98;;;13.80;99.90;;;;;;10106463;28;20190;-67
2024/02/17 03:08:03;;;;;;;3.50;2.22;;;13.80;99.90;;;;;;10108590;28;20116;-64
2024/02/17 03:12:53;;;;;;;3.33;1.60;;;13.80;99.90;;;;;;10102751;28;20115;-63
2024/02/17 03:17:46;;;;;;;3.50;2.17;;;13.90;99.90;;;;;;10098586;28;20124;-67
2024/02/17 03:22:36;;;;;;;4.20;2.17;;;13.90;99.90;;;;;;10100400;28;20098;-64
2024/02/17 03:27:27;;;;;;;3.33;2.15;;;13.80;99.90;;;;;;10096237;28;20053;-66
2024/02/17 03:32:18;;;;;;;4.95;2.00;;;13.70;99.90;;;;;;10098400;28;20037;-63
2024/02/17 03:37:09;;;;;;;3.55;1.95;;;13.70;99.90;;;;;;10098652;28;20037;-64
2024/02/17 03:42:00;;;;;;;4.88;2.92;;;13.80;99.90;;;;;;10099798;28;20039;-66
2024/02/17 03:46:51;;;;;;;4.82;2.85;;;13.80;99.90;;;;;;10102769;28;20116;-64
2024/02/17 03:51:43;;;;;;;5.45;3.00;;;13.80;99.90;;;;;;10101449;28;20439;-65
2024/02/17 03:56:34;;;;;;;5.30;3.33;;;13.70;99.90;;;;;;10103868;28;20037;-63
2024/02/17 04:01:26;;;;;;;6.32;3.45;;;13.70;99.90;;;;;;10097159;28;20028;-64
2024/02/17 04:06:17;;;;;;;6.45;4.07;;;13.70;99.90;;;;;;10094361;28;20112;-63
2024/02/17 04:11:09;;;;;;;7.53;4.20;;;13.70;99.90;;;;;;10087328;28;20119;-63
2024/02/17 04:16:00;;;;;;;7.03;4.22;;;13.60;99.90;;;;;;10078472;28;20171;-63
2024/02/17 04:20:50;;;;;;;9.15;5.68;;;13.60;99.90;;;;;;10094175;28;20029;-67
2024/02/17 04:25:44;;;;;;;9.40;4.97;;;13.60;99.90;;;;;;10107533;28;20049;-65
2024/02/17 04:30:34;;;;;;;7.32;4.65;;;13.60;99.90;;;;;;10106936;28;20028;-63
2024/02/17 04:35:25;;;;;;;8.05;5.22;;;13.60;99.90;;;;;;10095743;28;20056;-64
2024/02/17 04:40:16;;;;;;;8.60;4.57;;;13.60;99.90;;;;;;10095549;28;20104;-64
2024/02/17 04:45:07;;;;;;;9.45;5.47;;;13.50;99.90;;;;;;10103240;28;20530;-64
2024/02/17 04:49:58;;;;;;;6.95;4.65;;;13.60;99.90;;;;;;10101377;28;20032;-63
2024/02/17 04:54:48;;;;;;;11.50;5.60;;;13.50;99.90;;;;;;10095660;28;20033;-63
2024/02/17 04:59:39;;;;;;;9.40;5.18;;;13.40;99.90;;;;;;10105784;28;20025;-63
2024/02/17 05:04:29;;;;;;;10.15;6.00;;;13.50;99.90;;;;;;10090126;28;20048;-63
2024/02/17 05:09:20;;;;;;;9.02;5.47;;;13.50;99.90;;;;;;10090781;28;20041;-67
2024/02/17 05:14:15;;;;;;;8.98;5.32;;;13.40;99.90;;;;;;10094266;28;20421;-65
2024/02/17 05:19:07;;;;;;;8.40;5.20;;;13.40;99.90;;;;;;10093750;28;20486;-64
2024/02/17 05:23:58;;;;;;;8.05;5.28;;;13.30;99.90;;;;;;10095095;28;20049;-64
2024/02/17 05:28:48;;;;;;;9.75;5.20;;;13.20;99.90;;;;;;10092833;28;20102;-67
2024/02/17 05:33:39;;;;;;;9.98;5.65;;;13.30;99.90;;;;;;10094018;28;20025;-68
2024/02/17 05:38:30;;;;;;;9.68;4.90;;;13.20;99.90;;;;;;10098351;28;20102;-64
2024/02/17 05:43:20;;;;;;;9.48;5.50;;;13.10;99.90;;;;;;10097338;28;20061;-64
2024/02/17 05:48:11;;;;;;;9.50;5.07;;;13.10;99.90;;;;;;10089962;28;20025;-64
2024/02/17 05:53:02;;;;;;;10.38;5.57;;;13.10;99.90;;;;;;10087630;28;22346;-64
2024/02/17 05:57:53;;;;;;;11.98;6.45;;;13.20;99.90;;;;;;10092080;28;20096;-65
2024/02/17 06:02:44;;;;;;;11.73;6.70;;;13.10;99.90;;;;;;10101076;28;20104;-64
2024/02/17 06:07:36;;;;;;;7.57;5.13;;;13.10;99.90;;;;;;10110375;28;20028;-63
2024/02/17 06:12:26;;;;;;;11.43;5.15;;;13.10;99.90;;;;;;10108871;28;20025;-64
2024/02/17 06:17:22;;;;;;;10.40;6.38;;;13.00;99.90;;;;;;10084783;28;20418;-65
2024/02/17 06:22:13;;;;;;;9.50;5.50;;;13.00;99.90;;;;;;10095227;28;20020;-65
2024/02/17 06:27:03;;;;;;;8.32;5.25;;;12.90;99.90;;;;;;10100004;28;20424;-64
2024/02/17 06:31:54;;;;;;;10.35;6.20;;;12.90;99.90;;;;;;10089220;28;20033;-64
2024/02/17 06:36:45;;;;;;;10.75;5.80;;;12.90;99.90;;;;;;10104948;28;20045;-66
2024/02/17 06:41:35;;;;;;;10.60;6.10;;;12.70;99.90;;;;;;10104109;28;20390;-68
2024/02/17 06:46:26;;;;;;;12.23;6.45;;;12.70;99.90;;;;;;10101794;28;20471;-67
2024/02/17 06:51:17;;;;;;;11.65;6.13;;;12.70;99.90;;;;;;10080170;28;20383;-66
2024/02/17 06:56:08;;;;;;;15.23;7.30;;;12.60;99.90;;;;;;10095638;28;20033;-67
2024/02/17 07:00:58;;;;;;;11.65;6.75;;;12.60;99.90;;;;;;10122882;28;20056;-67
2024/02/17 07:05:49;;;;;;;14.40;7.53;;;12.60;99.90;;;;;;10122792;28;20025;-67
2024/02/17 07:10:39;;;;;;;12.35;6.97;;;12.70;99.90;;;;;;10119139;28;20320;-66
2024/02/17 07:15:31;;;;;;;14.13;6.88;;;12.60;99.90;;;;;;10122572;28;20104;-66
2024/02/17 07:20:22;;;;;;;14.70;6.80;;;12.70;99.90;;;;;;10125601;28;20028;-67
2024/02/17 07:25:12;;;;;;;11.32;6.78;;;12.70;99.90;;;;;;10122227;28;20056;-67
2024/02/17 07:30:04;;;;;;;14.05;6.60;;;12.70;99.90;;;;;;10122658;28;20028;-68
2024/02/17 07:34:55;;;;;;;10.80;5.75;;;12.70;99.90;;;;;;10122100;28;20041;-67
2024/02/17 07:39:46;;;;;;;9.63;5.70;;;12.50;99.90;;;;;;10117805;28;20037;-67
2024/02/17 07:44:37;;;;;;;11.23;6.35;;;12.50;99.90;;;;;;10122440;28;20342;-68
2024/02/17 07:49:28;;;;;;;11.45;6.35;;;12.60;99.90;;;;;;10120273;28;20040;-68
2024/02/17 07:54:19;;;;;;;13.25;6.40;;;12.50;99.90;;;;;;10110666;28;20053;-67
2024/02/17 07:59:09;;;;;;;11.88;7.18;;;12.50;99.90;;;;;;10103021;28;20020;-67
2024/02/17 08:04:00;;;;;;;11.30;7.32;;;12.50;99.90;;;;;;10099221;28;20100;-64
2024/02/17 08:08:51;;;;;;;13.35;7.38;;;12.50;99.90;;;;;;10117309;28;20032;-66
2024/02/17 08:13:42;;;;;;;10.63;6.40;;;12.60;99.90;;;;;;10114641;28;20338;-68
2024/02/17 08:18:33;;;;;;;13.90;6.90;;;12.50;99.90;;;;;;10119219;28;20040;-67
2024/02/17 08:23:28;;;;;;;12.55;6.55;;;12.50;99.90;;;;;;10112048;28;20201;-67
2024/02/17 08:28:18;;;;;;;14.10;6.37;;;12.60;99.90;;;;;;10121367;28;20040;-67
2024/02/17 08:33:09;;;;;;;12.07;7.15;;;12.60;99.90;;;;;;10119888;28;20036;-67
2024/02/17 08:37:59;;;;;;;13.70;6.65;;;12.70;99.90;;;;;;10119957;28;20040;-65
2024/02/17 08:42:50;;;;;;;11.40;6.30;;;12.70;99.90;;;;;;10104771;28;20096;-66
2024/02/17 08:47:41;;;;;;;13.27;6.72;;;12.60;99.90;;;;;;10113565;28;20085;-67
2024/02/17 08:52:31;;;;;;;13.82;6.47;;;12.60;99.90;;;;;;10119565;28;20029;-67
2024/02/17 08:57:22;;;;;;;12.57;6.47;;;12.60;99.90;;;;;;10118015;28;20052;-65
2024/02/17 09:02:17;;;;;;;12.48;7.15;;;12.70;99.90;;;;;;10117980;28;20017;-67
2024/02/17 09:07:07;;;;;;;10.40;6.05;;;12.60;99.90;;;;;;10115393;28;20036;-66
2024/02/17 09:11:58;;;;;;;10.85;6.18;;;12.60;99.90;;;;;;10117540;28;20084;-65
2024/02/17 09:16:49;;;;;;;10.40;6.05;;;12.70;99.90;;;;;;10108529;28;20029;-65
2024/02/17 09:21:39;;;;;;;16.42;6.57;;;12.60;99.90;;;;;;10113992;28;20201;-66
2024/02/17 09:26:31;;;;;;;9.38;5.50;;;12.60;99.90;;;;;;10116132;28;20064;-66
2024/02/17 09:31:21;;;;;;;9.63;5.70;;;12.60;99.90;;;;;;10118454;28;20036;-67
2024/02/17 09:36:12;;;;;;;10.13;6.22;;;12.70;99.90;;;;;;10117838;28;20048;-64
2024/02/17 09:41:03;;;;;;;10.63;5.88;;;12.70;99.90;;;;;;10128716;28;20020;-65
2024/02/17 09:45:54;;;;;;;11.70;5.47;;;12.70;99.90;;;;;;10116439;28;20653;-66
2024/02/17 09:50:49;;;;;;;11.95;5.63;;;12.80;99.90;;;;;;10116603;28;20061;-64
2024/02/17 09:55:41;;;;;;;10.30;5.18;;;12.90;99.90;;;;;;10120894;28;20104;-66
2024/02/17 10:00:32;;;;;;;11.85;5.47;;;12.80;99.90;;;;;;10125287;28;20200;-65
2024/02/17 10:05:27;;;;;;;8.98;5.57;;;12.80;99.90;;;;;;10124543;28;20060;-63
2024/02/17 10:10:19;;;;;;;7.57;4.88;;;13.00;99.90;;;;;;10122020;28;20065;-64
2024/02/17 10:15:10;;;;;;;12.88;5.75;;;13.00;99.90;;;;;;10121248;28;20040;-65
2024/02/17 10:20:02;;;;;;;9.00;5.18;;;13.00;99.90;;;;;;10124922;28;20045;-64
2024/02/17 10:24:59;;;;;;;10.35;4.93;;;13.00;99.90;;;;;;10125878;28;20029;-66
2024/02/17 10:29:50;;;;;;;9.18;5.30;;;13.10;99.90;;;;;;10124273;28;20028;-64
2024/02/17 10:34:41;;;;;;;9.13;5.35;;;13.00;99.90;;;;;;10122667;28;20092;-67
2024/02/17 10:39:32;;;;;;;11.75;5.03;;;13.00;99.90;;;;;;10120192;28;20028;-67
2024/02/17 10:44:23;;;;;;;8.65;5.32;;;13.00;99.90;;;;;;10120713;28;20024;-65
2024/02/17 10:49:25;;;;;;;9.95;5.30;;;13.10;99.90;;;;;;10123347;28;20021;-64
2024/02/17 10:54:26;;;;;;;10.85;6.07;;;13.10;99.90;;;;;;10106544;28;20041;-66
2024/02/17 10:59:21;;;;;;;9.27;5.15;;;13.20;99.90;;;;;;10121634;28;20024;-66
2024/02/17 11:04:12;;;;;;;14.70;6.45;;;13.30;99.90;;;;;;10110869;28;20029;-64
2024/02/17 11:09:03;;;;;;;6.97;4.72;;;13.30;99.90;;;;;;10094828;28;20055;-64
2024/02/17 11:13:55;;;;;;;9.77;5.47;;;13.20;99.90;;;;;;10095603;28;20025;-65
2024/02/17 11:18:51;;;;;;;8.80;4.68;;;13.30;99.90;;;;;;10080672;28;20487;-64
2024/02/17 11:23:42;;;;;;;9.43;5.93;;;13.40;99.90;;;;;;10096265;28;20043;-65
2024/02/17 11:28:33;;;;;;;8.98;5.60;;;13.40;99.90;;;;;;10091681;28;20056;-65
2024/02/17 11:33:29;;;;;;;10.75;5.57;;;13.40;99.90;;;;;;10098801;28;20045;-66
2024/02/17 11:38:25;;;;;;;8.55;4.28;;;13.40;99.90;;;;;;10097934;28;20769;-66
2024/02/17 11:43:16;;;;;;;6.95;4.45;;;13.40;99.90;;;;;;10097085;28;20047;-66
2024/02/17 11:48:07;;;;;;;10.50;5.30;;;13.60;99.90;;;;;;10092735;28;20032;-64
2024/02/17 11:52:59;;;;;;;11.55;4.78;;;13.60;99.90;;;;;;10067687;28;20044;-64
2024/02/17 11:57:53;;;;;;;7.90;4.68;;;13.70;99.90;;;;;;10089144;28;20454;-66
2024/02/17 12:02:45;;;;;;;7.50;4.38;;;13.70;99.90;;;;;;10097150;28;20024;-64
2024/02/17 12:07:36;;;;;;;8.05;5.15;;;13.70;99.90;;;;;;10068361;28;20104;-64
2024/02/17 12:12:26;;;;;;;9.02;6.00;;;13.70;99.90;;;;;;10088816;28;20092;-65
2024/02/17 12:17:18;;;;;;;10.63;5.40;;;13.80;99.90;;;;;;10090685;28;20044;-64
2024/02/17 12:22:09;;;;;;;8.75;4.53;;;13.90;99.90;;;;;;10096453;28;20399;-64
2024/02/17 12:27:00;;;;;;;13.05;6.07;;;13.90;99.90;;;;;;10103202;28;20056;-63
2024/02/17 12:31:57;;;;;;;8.43;4.32;;;13.90;99.90;;;;;;10108805;28;20051;-65
2024/02/17 12:36:51;;;;;;;8.20;5.43;;;13.90;99.90;;;;;;10104070;28;20529;-62
2024/02/17 12:41:42;;;;;;;9.20;5.53;;;14.00;99.90;;;;;;10113541;28;20211;-64
2024/02/17 12:46:36;;;;;;;6.85;3.80;;;14.10;99.90;;;;;;10113950;28;20031;-64
2024/02/17 12:51:28;;;;;;;7.03;4.40;;;14.20;99.90;;;;;;10095541;28;20039;-65
2024/02/17 12:56:19;;;;;;;9.10;4.97;;;14.30;99.90;;;;;;10091288;28;20436;-65
2024/02/17 13:01:10;;;;;;;8.65;4.85;;;14.40;99.90;;;;;;10092148;28;20104;-64
2024/02/17 13:06:03;;;;;;;12.20;6.13;;;14.50;99.90;;;;;;10080275;28;20033;-64
2024/02/17 13:10:54;;;;;;;7.97;4.80;;;14.60;99.90;;;;;;10094183;28;20027;-64
2024/02/17 13:15:45;;;;;;;5.93;3.80;;;14.60;99.90;;;;;;10076009;28;20040;-65
2024/02/17 13:20:36;;;;;;;6.78;4.18;;;14.70;99.90;;;;;;10093565;28;20469;-65
2024/02/17 13:25:27;;;;;;;7.43;4.65;;;14.90;99.90;;;;;;10083130;28;20041;-65
2024/02/17 13:30:21;;;;;;;9.50;4.70;;;15.00;99.90;;;;;;10081837;28;20406;-66
2024/02/17 13:35:13;;;;;;;5.10;4.03;;;15.00;99.90;;;;;;10085885;28;20037;-66
2024/02/17 13:40:06;;;;;;;7.60;4.25;;;15.00;99.90;;;;;;10086867;28;20025;-64
2024/02/17 13:44:57;;;;;;;4.78;2.65;;;15.20;99.90;;;;;;10083736;28;20053;-66
2024/02/17 13:49:48;;;;;;;6.05;2.95;;;15.30;99.90;;;;;;10092560;28;20517;-66
2024/02/17 13:54:38;;;;;;;6.32;3.38;;;15.40;99.90;;;;;;10093581;28;20076;-64
2024/02/17 13:59:29;;;;;;;7.32;3.92;;;15.50;99.90;;;;;;10092188;28;20079;-64
2024/02/17 14:04:20;;;;;;;6.65;3.53;;;15.60;99.90;;;;;;10093402;28;20076;-63
2024/02/17 14:09:11;;;;;;;7.00;4.63;;;15.50;99.90;;;;;;10089801;28;20544;-66
2024/02/17 14:14:01;;;;;;;7.53;4.07;;;15.50;99.90;;;;;;10091926;28;20040;-65
2024/02/17 14:18:52;;;;;;;5.60;3.75;;;15.40;99.90;;;;;;10092820;28;20216;-67
2024/02/17 14:23:43;;;;;;;6.15;2.97;;;15.70;99.90;;;;;;10100518;28;20133;-64
2024/02/17 14:28:33;;;;;;;7.45;3.63;;;15.80;99.90;;;;;;10107123;28;20067;-63
2024/02/17 14:33:24;;;;;;;6.75;3.78;;;16.00;99.90;;;;;;10122048;28;20044;-64
2024/02/17 14:38:15;;;;;;;7.63;3.40;;;16.00;99.90;;;;;;10105642;28;20058;-63
2024/02/17 14:43:05;;;;;;;3.70;3.10;;;16.10;99.90;;;;;;10101022;28;20023;-63
2024/02/17 14:47:56;;;;;;;5.30;3.30;;;16.00;99.90;;;;;;10090073;28;20490;-64
2024/02/17 14:52:47;;;;;;;5.65;3.28;;;16.00;99.90;;;;;;10093168;28;20098;-65
2024/02/17 14:57:37;;;;;;;6.90;3.45;;;15.90;99.90;;;;;;10096327;28;20041;-63
2024/02/17 15:02:28;;;;;;;3.53;2.72;;;15.80;99.90;;;;;;10094800;28;20483;-64
2024/02/17 15:07:18;;;;;;;4.47;2.45;;;15.80;99.90;;;;;;10099154;28;20120;-64
2024/02/17 15:12:09;;;;;;;5.90;3.50;;;15.50;99.90;;;;;;10098020;28;20029;-62
2024/02/17 15:17:00;;;;;;;3.95;2.90;;;15.40;99.90;;;;;;10099227;28;20073;-63
2024/02/17 15:21:50;;;;;;;4.30;2.97;;;15.20;99.90;;;;;;10098741;28;20035;-64
2024/02/17 15:26:41;;;;;;;4.53;2.80;;;15.20;99.90;;;;;;10098345;28;20102;-64
2024/02/17 15:31:33;;;;;;;3.70;2.53;;;15.10;99.90;;;;;;10098952;28;20108;-64
2024/02/17 15:36:23;;;;;;;6.50;2.90;;;15.00;99.90;;;;;;10095871;28;20048;-64
2024/02/17 15:41:15;;;;;;;5.47;2.85;;;14.90;99.90;;;;;;10097966;28;20021;-66
2024/02/17 15:46:09;;;;;;;4.38;2.20;;;14.70;99.90;;;;;;10096363;28;20036;-64
2024/02/17 15:51:00;;;;;;;6.03;3.17;;;14.70;99.90;;;;;;10092646;28;20044;-63
2024/02/17 15:55:51;;;;;;;5.30;2.88;;;14.70;99.90;;;;;;10094607;28;20056;-65
2024/02/17 16:00:41;;;;;;;6.30;3.22;;;14.60;99.90;;;;;;10095584;28;20041;-64
2024/02/17 16:05:34;;;;;;;3.97;2.50;;;14.50;99.90;;;;;;10088532;28;20037;-64
2024/02/17 16:10:28;;;;;;;5.82;2.80;;;14.40;99.90;;;;;;10094828;28;20493;-66
2024/02/17 16:15:19;;;;;;;3.92;2.33;;;14.40;99.90;;;;;;10096610;28;20079;-66
2024/02/17 16:20:10;;;;;;;6.05;3.42;;;14.30;99.90;;;;;;10092894;28;20021;-65
2024/02/17 16:25:00;;;;;;;2.78;2.50;;;14.20;99.90;;;;;;10073988;28;20037;-68
2024/02/17 16:29:51;;;;;;;4.10;2.95;;;14.10;99.90;;;;;;10096717;28;20036;-67
2024/02/17 16:34:44;;;;;;;5.15;2.42;;;14.10;99.90;;;;;;10095162;28;20036;-66
2024/02/17 16:39:35;;;;;;;3.97;2.78;;;14.10;99.90;;;;;;10098189;28;20040;-64
2024/02/17 16:44:25;;;;;;;4.25;2.47;;;14.00;99.90;;;;;;10095767;28;20036;-64
2024/02/17 16:49:16;;;;;;;4.25;2.38;;;13.90;99.90;;;;;;10096657;28;20090;-63
2024/02/17 16:54:07;;;;;;;4.20;2.22;;;13.80;99.90;;;;;;10102978;28;20651;-63
2024/02/17 16:58:58;;;;;;;5.47;2.75;;;13.80;99.90;;;;;;10093400;28;20020;-63
2024/02/17 17:03:48;;;;;;;4.72;2.83;;;13.70;99.90;;;;;;10094742;28;20110;-63
2024/02/17 17:08:39;;;;;;;3.45;2.40;;;13.70;99.90;;;;;;10094269;28;20047;-63
2024/02/17 17:13:31;;;;;;;5.13;3.08;;;13.70;99.90;;;;;;10089783;28;20036;-64
2024/02/17 17:18:22;;;;;;;6.28;2.75;;;13.70;99.90;;;;;;10089620;28;20037;-63
2024/02/17 17:23:12;;;;;;;4.63;2.90;;;13.60;99.90;;;;;;10090291;28;20021;-63
2024/02/17 17:28:03;;;;;;;4.43;2.70;;;13.60;99.90;;;;;;10090695;28;20056;-64
2024/02/17 17:32:54;;;;;;;6.60;3.80;;;13.50;99.90;;;;;;10090683;28;20032;-64
2024/02/17 17:37:44;;;;;;;7.25;3.30;;;13.40;99.90;;;;;;10093021;28;20045;-62
2024/02/17 17:42:35;;;;;;;7.93;3.58;;;13.40;99.90;;;;;;10094027;28;20044;-62
2024/02/17 17:47:32;;;;;;;4.80;3.65;;;13.40;99.90;;;;;;10084085;28;20494;-63
2024/02/17 17:52:23;;;;;;;7.85;4.13;;;13.40;99.90;;;;;;10094400;28;20478;-66
2024/02/17 17:57:15;;;;;;;4.22;2.92;;;13.30;99.90;;;;;;10099662;28;20116;-63
2024/02/17 18:02:06;;;;;;;6.28;3.28;;;13.20;99.90;;;;;;10084181;28;20028;-66
2024/02/17 18:06:56;;;;;;;7.03;3.60;;;13.20;99.90;;;;;;10093643;28;20031;-66
2024/02/17 18:11:48;;;;;;;5.72;3.15;;;13.20;99.90;;;;;;10102389;28;20409;-65
2024/02/17 18:16:39;;;;;;;4.90;3.22;;;13.00;99.90;;;;;;10098527;28;20426;-66
2024/02/17 18:21:30;;;;;;;4.97;3.35;;;13.10;99.90;;;;;;10097739;28;20040;-63
2024/02/17 18:26:20;;;;;;;5.80;3.47;;;13.10;99.90;;;;;;10093949;28;20060;-64
2024/02/17 18:31:11;;;;;;;8.15;4.35;;;13.10;99.90;;;;;;10096234;28;20047;-66
2024/02/17 18:36:02;;;;;;;6.47;3.80;;;13.10;99.90;;;;;;10100255;28;20607;-65
2024/02/17 18:40:52;;;;;;;5.10;3.53;;;13.10;99.90;;;;;;10094055;28;20037;-64
2024/02/17 18:45:48;;;;;;;6.13;3.35;;;13.10;99.90;;;;;;10100791;28;20032;-66
2024/02/17 18:50:42;;;;;;;6.95;4.13;;;13.10;99.90;;;;;;10100475;28;20017;-64
2024/02/17 18:55:33;;;;;;;8.50;4.20;;;13.10;99.90;;;;;;10097430;28;20033;-62
2024/02/17 19:00:24;;;;;;;6.45;3.78;;;13.10;99.90;;;;;;10101099;28;20025;-63
2024/02/17 19:05:14;;;;;;;9.73;3.90;;;13.00;99.90;;;;;;10097690;28;20534;-64
2024/02/17 19:10:06;;;;;;;8.35;3.67;;;12.90;99.90;;;;;;10084190;28;20035;-63
2024/02/17 19:14:57;;;;;;;9.00;4.20;;;12.90;99.90;;;;;;10091288;28;20037;-63
2024/02/17 19:19:48;;;;;;;8.27;4.63;;;12.90;99.90;;;;;;10099434;28;20033;-62
2024/02/17 19:24:38;;;;;;;9.00;3.88;;;12.90;99.90;;;;;;10097214;28;20047;-64
2024/02/17 19:29:29;;;;;;;7.50;4.20;;;12.90;99.90;;;;;;10097750;28;20041;-65
2024/02/17 19:34:19;;;;;;;4.85;3.78;;;12.80;99.90;;;;;;10091219;28;20537;-65
2024/02/17 19:39:11;;;;;;;6.85;3.92;;;12.80;99.90;;;;;;10099265;28;20033;-64
2024/02/17 19:44:02;;;;;;;9.18;4.32;;;12.70;99.90;;;;;;10101073;28;20037;-64
2024/02/17 19:48:53;;;;;;;9.38;4.18;;;12.70;99.90;;;;;;10098376;28;20040;-64
2024/02/17 19:53:47;;;;;;;8.18;4.15;;;12.60;99.90;;;;;;10098019;28;20025;-66
2024/02/17 19:58:38;;;;;;;6.78;4.03;;;12.60;99.90;;;;;;10099372;28;20097;-64
2024/02/17 20:03:28;;;;;;;4.68;3.88;;;12.60;99.90;;;;;;10095564;28;20036;-65
2024/02/17 20:08:19;;;;;;;7.05;3.88;;;12.50;99.90;;;;;;10094583;28;20037;-66
2024/02/17 20:13:09;;;;;;;6.60;3.95;;;12.50;99.90;;;;;;10092629;28;20395;-67
2024/02/17 20:18:00;;;;;;;10.18;4.88;;;12.50;99.90;;;;;;10092501;28;20048;-65
2024/02/17 20:22:53;;;;;;;8.43;6.32;;;12.40;99.90;;;;;;10093536;28;20524;-66
2024/02/17 20:27:43;;;;;;;9.13;5.43;;;12.30;99.90;;;;;;10078517;28;20637;-64
2024/02/17 20:32:34;;;;;;;6.47;4.07;;;12.40;99.90;;;;;;10096636;28;20024;-65
2024/02/17 20:37:25;;;;;;;7.85;4.28;;;12.40;99.90;;;;;;10095424;28;20123;-65
2024/02/17 20:42:16;;;;;;;8.70;4.50;;;12.40;99.90;;;;;;10076795;28;20124;-65
2024/02/17 20:47:07;;;;;;;7.70;5.05;;;12.30;99.90;;;;;;10096438;28;20366;-64
2024/02/17 20:51:58;;;;;;;9.95;5.30;;;12.30;99.90;;;;;;10097065;28;20025;-63
2024/02/17 20:56:49;;;;;;;7.72;5.07;;;12.30;99.90;;;;;;10085380;28;20103;-66
2024/02/17 21:01:40;;;;;;;9.77;4.63;;;12.30;99.90;;;;;;10096018;28;20100;-64
2024/02/17 21:06:30;;;;;;;12.23;6.50;;;12.20;99.90;;;;;;10096907;28;20120;-66
2024/02/17 21:11:21;;;;;;;12.60;5.65;;;12.20;99.90;;;;;;10089870;28;20044;-64
2024/02/17 21:16:12;;;;;;;12.77;5.85;;;12.10;99.90;;;;;;10093558;28;20422;-65
2024/02/17 21:21:03;;;;;;;8.57;5.28;;;12.20;99.90;;;;;;10096233;28;20032;-65
2024/02/17 21:25:53;;;;;;;11.88;6.07;;;12.10;99.90;;;;;;10093209;28;20053;-64
2024/02/17 21:30:44;;;;;;;9.25;5.45;;;12.10;99.90;;;;;;10096724;28;20017;-64
2024/02/17 21:35:34;;;;;;;7.95;4.78;;;12.10;99.90;;;;;;10101311;28;20492;-65
2024/02/17 21:40:26;;;;;;;11.35;5.70;;;12.10;99.90;;;;;;10092192;28;20051;-63
2024/02/17 21:45:16;;;;;;;9.02;5.43;;;12.10;99.90;;;;;;10101920;28;20087;-65
2024/02/17 21:50:07;;;;;;;9.23;5.40;;;12.10;99.90;;;;;;10104039;28;20063;-64
2024/02/17 21:54:58;;;;;;;7.93;5.05;;;12.00;99.90;;;;;;10102973;28;20036;-63
2024/02/17 21:59:48;;;;;;;7.95;5.15;;;12.00;99.90;;;;;;10100515;28;20036;-64
2024/02/17 22:04:39;;;;;;;8.05;4.78;;;12.00;99.90;;;;;;10101886;28;20617;-63
2024/02/17 22:09:30;;;;;;;9.93;5.32;;;11.90;99.90;;;;;;10097592;28;20036;-65
2024/02/17 22:14:20;;;;;;;11.10;4.95;;;11.90;99.90;;;;;;10101841;28;20045;-63
2024/02/17 22:19:11;;;;;;;10.55;4.60;;;11.90;99.90;;;;;;10092957;28;20079;-64
2024/02/17 22:24:02;;;;;;;9.52;4.90;;;11.90;99.90;;;;;;10101097;28;20029;-64
2024/02/17 22:28:52;;;;;;;16.13;10.35;;;11.90;99.90;;;;;;10101977;28;20669;-64
2024/02/17 22:33:43;;;;;;;16.60;10.98;;;11.80;99.90;;;;;;10092205;28;20026;-65
2024/02/17 22:38:33;;;;;;;22.63;10.65;;;11.80;99.90;;;;;;10076331;28;20029;-64
2024/02/17 22:43:24;;;;;;;17.77;9.57;;;11.80;99.90;;;;;;10094765;28;20428;-62
2024/02/17 22:48:15;;;;;;;15.32;8.40;;;11.80;99.90;;;;;;10097492;28;20040;-63
2024/02/17 22:53:06;;;;;;;13.05;7.10;;;11.80;99.90;;;;;;10097431;28;20032;-63
2024/02/17 22:57:56;;;;;;;12.10;6.60;;;11.70;99.90;;;;;;10098254;28;20434;-64
2024/02/17 23:02:48;;;;;;;8.75;5.43;;;11.70;99.90;;;;;;10079842;28;20036;-63
2024/02/17 23:07:39;;;;;;;9.10;5.07;;;11.70;99.90;;;;;;10091375;28;20526;-63
2024/02/17 23:12:30;;;;;;;8.82;5.07;;;11.80;99.90;;;;;;10096157;28;20024;-64
2024/02/17 23:17:20;;;;;;;10.23;5.50;;;11.70;99.90;;;;;;10099186;28;20110;-64
2024/02/17 23:22:11;;;;;;;9.52;4.93;;;11.70;99.90;;;;;;10081755;28;20029;-63
2024/02/17 23:27:02;;;;;;;10.77;4.35;;;11.70;99.90;;;;;;10103544;28;20124;-64
2024/02/17 23:31:53;;;;;;;8.77;4.88;;;11.70;99.90;;;;;;10098982;28;20024;-64
2024/02/17 23:36:44;;;;;;;8.73;4.90;;;11.60;99.90;;;;;;10092890;28;20047;-64
2024/02/17 23:41:36;;;;;;;6.30;4.32;;;11.60;99.90;;;;;;10099418;28;20112;-65
2024/02/17 23:46:27;;;;;;;8.60;5.10;;;11.60;99.90;;;;;;10098501;28;20047;-64
2024/02/17 23:51:17;;;;;;;10.55;5.63;;;11.60;99.90;;;;;;10093411;28;20414;-64
2024/02/17 23:56:10;;;;;;;8.82;4.90;;;11.50;99.90;;;;;;10094356;28;20043;-64
